sensor_id;sensor_type;location;lat;lon;timestamp;P1;durP1;ratioP1;P2;durP2;ratioP2
823;SDS011;373;49.342;8.146;2022-07-29T00:01:48;1.83;;;1.70;;
823;SDS011;373;49.342;8.146;2022-07-29T00:04:18;3.13;;;1.73;;
823;SDS011;373;49.342;8.146;2022-07-29T00:06:46;2.30;;;1.80;;
823;SDS011;373;49.342;8.146;2022-07-29T00:09:13;1.80;;;1.70;;
823;SDS011;373;49.342;8.146;2022-07-29T00:11:40;2.65;;;1.63;;
823;SDS011;373;49.342;8.146;2022-07-29T00:14:07;1.98;;;1.70;;
823;SDS011;373;49.342;8.146;2022-07-29T00:16:34;2.20;;;1.75;;
823;SDS011;373;49.342;8.146;2022-07-29T00:19:02;5.00;;;1.92;;
823;SDS011;373;49.342;8.146;2022-07-29T00:21:30;2.88;;;2.15;;
823;SDS011;373;49.342;8.146;2022-07-29T00:23:58;2.15;;;1.73;;
823;SDS011;373;49.342;8.146;2022-07-29T00:26:25;2.55;;;1.75;;
823;SDS011;373;49.342;8.146;2022-07-29T00:28:57;2.55;;;2.00;;
823;SDS011;373;49.342;8.146;2022-07-29T00:31:24;2.22;;;2.05;;
823;SDS011;373;49.342;8.146;2022-07-29T00:33:52;2.22;;;1.73;;
823;SDS011;373;49.342;8.146;2022-07-29T00:36:19;3.00;;;1.73;;
823;SDS011;373;49.342;8.146;2022-07-29T00:38:47;3.60;;;2.00;;
823;SDS011;373;49.342;8.146;2022-07-29T00:41:14;1.88;;;1.77;;
823;SDS011;373;49.342;8.146;2022-07-29T00:43:42;3.20;;;1.90;;
823;SDS011;373;49.342;8.146;2022-07-29T00:46:09;2.03;;;1.55;;
823;SDS011;373;49.342;8.146;2022-07-29T00:48:37;1.90;;;1.80;;
823;SDS011;373;49.342;8.146;2022-07-29T00:51:05;2.53;;;2.30;;
823;SDS011;373;49.342;8.146;2022-07-29T00:53:35;2.10;;;1.90;;
823;SDS011;373;49.342;8.146;2022-07-29T00:56:04;2.47;;;1.67;;
823;SDS011;373;49.342;8.146;2022-07-29T00:58:31;3.65;;;2.00;;
823;SDS011;373;49.342;8.146;2022-07-29T01:00:58;2.08;;;1.88;;
823;SDS011;373;49.342;8.146;2022-07-29T01:03:25;2.47;;;1.90;;
823;SDS011;373;49.342;8.146;2022-07-29T01:05:52;2.53;;;2.33;;
823;SDS011;373;49.342;8.146;2022-07-29T01:08:20;2.63;;;2.00;;
823;SDS011;373;49.342;8.146;2022-07-29T01:10:48;4.32;;;2.47;;
823;SDS011;373;49.342;8.146;2022-07-29T01:13:18;1.70;;;1.60;;
823;SDS011;373;49.342;8.146;2022-07-29T01:15:47;3.35;;;2.10;;
823;SDS011;373;49.342;8.146;2022-07-29T01:18:22;2.15;;;1.80;;
823;SDS011;373;49.342;8.146;2022-07-29T01:20:58;3.47;;;2.28;;
823;SDS011;373;49.342;8.146;2022-07-29T01:23:48;3.22;;;2.25;;
823;SDS011;373;49.342;8.146;2022-07-29T01:26:33;2.03;;;1.80;;
823;SDS011;373;49.342;8.146;2022-07-29T01:29:11;2.20;;;2.05;;
823;SDS011;373;49.342;8.146;2022-07-29T01:31:44;2.63;;;2.08;;
823;SDS011;373;49.342;8.146;2022-07-29T01:34:17;2.85;;;1.77;;
823;SDS011;373;49.342;8.146;2022-07-29T01:36:48;3.10;;;2.20;;
823;SDS011;373;49.342;8.146;2022-07-29T01:39:21;4.03;;;2.10;;
823;SDS011;373;49.342;8.146;2022-07-29T01:41:55;2.72;;;2.53;;
823;SDS011;373;49.342;8.146;2022-07-29T01:44:29;2.67;;;2.08;;
823;SDS011;373;49.342;8.146;2022-07-29T01:47:04;2.92;;;2.17;;
823;SDS011;373;49.342;8.146;2022-07-29T01:49:37;2.72;;;1.90;;
823;SDS011;373;49.342;8.146;2022-07-29T01:52:11;2.15;;;2.00;;
823;SDS011;373;49.342;8.146;2022-07-29T01:54:46;2.53;;;1.90;;
823;SDS011;373;49.342;8.146;2022-07-29T01:57:18;4.30;;;2.25;;
823;SDS011;373;49.342;8.146;2022-07-29T01:59:52;2.15;;;1.95;;
823;SDS011;373;49.342;8.146;2022-07-29T02:02:22;2.55;;;2.17;;
823;SDS011;373;49.342;8.146;2022-07-29T02:04:50;2.70;;;1.92;;
823;SDS011;373;49.342;8.146;2022-07-29T02:07:21;3.88;;;2.17;;
823;SDS011;373;49.342;8.146;2022-07-29T02:09:50;1.80;;;1.70;;
823;SDS011;373;49.342;8.146;2022-07-29T02:12:18;2.75;;;2.42;;
823;SDS011;373;49.342;8.146;2022-07-29T02:14:47;3.30;;;2.13;;
823;SDS011;373;49.342;8.146;2022-07-29T02:17:21;2.95;;;2.30;;
823;SDS011;373;49.342;8.146;2022-07-29T02:19:51;2.92;;;1.83;;
823;SDS011;373;49.342;8.146;2022-07-29T02:22:21;2.25;;;2.05;;
823;SDS011;373;49.342;8.146;2022-07-29T02:24:50;3.65;;;2.25;;
823;SDS011;373;49.342;8.146;2022-07-29T02:27:20;3.70;;;1.88;;
823;SDS011;373;49.342;8.146;2022-07-29T02:29:50;3.38;;;2.00;;
823;SDS011;373;49.342;8.146;2022-07-29T02:32:20;3.65;;;1.83;;
823;SDS011;373;49.342;8.146;2022-07-29T02:34:48;2.53;;;2.00;;
823;SDS011;373;49.342;8.146;2022-07-29T02:37:17;2.75;;;2.55;;
823;SDS011;373;49.342;8.146;2022-07-29T02:39:44;2.20;;;2.00;;
823;SDS011;373;49.342;8.146;2022-07-29T02:42:15;3.28;;;2.25;;
823;SDS011;373;49.342;8.146;2022-07-29T02:44:44;2.60;;;2.17;;
823;SDS011;373;49.342;8.146;2022-07-29T02:47:13;4.15;;;2.47;;
823;SDS011;373;49.342;8.146;2022-07-29T02:49:52;3.17;;;2.40;;
823;SDS011;373;49.342;8.146;2022-07-29T02:52:22;2.50;;;2.30;;
823;SDS011;373;49.342;8.146;2022-07-29T02:54:54;2.22;;;1.77;;
823;SDS011;373;49.342;8.146;2022-07-29T02:57:28;2.97;;;2.35;;
823;SDS011;373;49.342;8.146;2022-07-29T02:59:59;2.50;;;2.30;;
823;SDS011;373;49.342;8.146;2022-07-29T03:02:31;2.30;;;2.10;;
823;SDS011;373;49.342;8.146;2022-07-29T03:05:03;5.97;;;2.53;;
823;SDS011;373;49.342;8.146;2022-07-29T03:07:32;4.57;;;2.28;;
823;SDS011;373;49.342;8.146;2022-07-29T03:10:01;2.63;;;2.38;;
823;SDS011;373;49.342;8.146;2022-07-29T03:12:29;2.10;;;1.98;;
823;SDS011;373;49.342;8.146;2022-07-29T03:14:57;2.65;;;2.00;;
823;SDS011;373;49.342;8.146;2022-07-29T03:17:27;3.05;;;2.40;;
823;SDS011;373;49.342;8.146;2022-07-29T03:19:54;2.22;;;2.00;;
823;SDS011;373;49.342;8.146;2022-07-29T03:22:23;2.05;;;1.92;;
823;SDS011;373;49.342;8.146;2022-07-29T03:24:50;2.70;;;2.50;;
823;SDS011;373;49.342;8.146;2022-07-29T03:27:17;1.80;;;1.70;;
823;SDS011;373;49.342;8.146;2022-07-29T03:29:45;2.30;;;1.90;;
823;SDS011;373;49.342;8.146;2022-07-29T03:32:12;3.00;;;1.95;;
823;SDS011;373;49.342;8.146;2022-07-29T03:34:39;2.95;;;2.10;;
823;SDS011;373;49.342;8.146;2022-07-29T03:37:06;5.22;;;1.98;;
823;SDS011;373;49.342;8.146;2022-07-29T03:39:36;2.17;;;2.00;;
823;SDS011;373;49.342;8.146;2022-07-29T03:42:07;2.67;;;2.47;;
823;SDS011;373;49.342;8.146;2022-07-29T03:44:37;3.65;;;2.70;;
823;SDS011;373;49.342;8.146;2022-07-29T03:47:05;3.38;;;2.33;;
823;SDS011;373;49.342;8.146;2022-07-29T03:49:34;4.10;;;2.25;;
823;SDS011;373;49.342;8.146;2022-07-29T03:52:04;3.00;;;1.98;;
823;SDS011;373;49.342;8.146;2022-07-29T03:54:32;2.60;;;2.40;;
823;SDS011;373;49.342;8.146;2022-07-29T03:57:01;2.20;;;2.10;;
823;SDS011;373;49.342;8.146;2022-07-29T03:59:30;2.42;;;2.22;;
823;SDS011;373;49.342;8.146;2022-07-29T04:01:59;2.25;;;1.83;;
823;SDS011;373;49.342;8.146;2022-07-29T04:04:28;3.63;;;2.60;;
823;SDS011;373;49.342;8.146;2022-07-29T04:06:55;2.60;;;2.38;;
823;SDS011;373;49.342;8.146;2022-07-29T04:09:22;3.90;;;2.17;;
823;SDS011;373;49.342;8.146;2022-07-29T04:11:49;4.72;;;2.40;;
823;SDS011;373;49.342;8.146;2022-07-29T04:14:18;5.65;;;2.85;;
823;SDS011;373;49.342;8.146;2022-07-29T04:16:45;2.60;;;2.40;;
823;SDS011;373;49.342;8.146;2022-07-29T04:19:12;2.72;;;2.50;;
823;SDS011;373;49.342;8.146;2022-07-29T04:21:40;2.72;;;2.42;;
823;SDS011;373;49.342;8.146;2022-07-29T04:24:08;2.15;;;1.95;;
823;SDS011;373;49.342;8.146;2022-07-29T04:26:35;3.42;;;2.53;;
823;SDS011;373;49.342;8.146;2022-07-29T04:29:02;5.00;;;2.10;;
823;SDS011;373;49.342;8.146;2022-07-29T04:31:30;2.75;;;2.47;;
823;SDS011;373;49.342;8.146;2022-07-29T04:33:57;2.97;;;2.20;;
823;SDS011;373;49.342;8.146;2022-07-29T04:36:24;3.15;;;2.42;;
823;SDS011;373;49.342;8.146;2022-07-29T04:38:52;3.05;;;2.45;;
823;SDS011;373;49.342;8.146;2022-07-29T04:41:19;2.20;;;2.10;;
823;SDS011;373;49.342;8.146;2022-07-29T04:43:46;2.85;;;2.53;;
823;SDS011;373;49.342;8.146;2022-07-29T04:46:13;2.88;;;2.10;;
823;SDS011;373;49.342;8.146;2022-07-29T04:48:41;2.20;;;2.00;;
823;SDS011;373;49.342;8.146;2022-07-29T04:51:08;4.97;;;2.50;;
823;SDS011;373;49.342;8.146;2022-07-29T04:53:35;3.97;;;2.60;;
823;SDS011;373;49.342;8.146;2022-07-29T04:56:03;3.65;;;2.40;;
823;SDS011;373;49.342;8.146;2022-07-29T04:58:30;3.42;;;2.58;;
823;SDS011;373;49.342;8.146;2022-07-29T05:01:00;2.30;;;2.10;;
823;SDS011;373;49.342;8.146;2022-07-29T05:03:27;2.55;;;2.35;;
823;SDS011;373;49.342;8.146;2022-07-29T05:05:55;2.58;;;2.03;;
823;SDS011;373;49.342;8.146;2022-07-29T05:08:22;4.05;;;2.30;;
823;SDS011;373;49.342;8.146;2022-07-29T05:10:49;3.30;;;2.22;;
823;SDS011;373;49.342;8.146;2022-07-29T05:13:17;2.55;;;2.22;;
823;SDS011;373;49.342;8.146;2022-07-29T05:15:44;2.70;;;2.17;;
823;SDS011;373;49.342;8.146;2022-07-29T05:18:11;2.70;;;2.50;;
823;SDS011;373;49.342;8.146;2022-07-29T05:20:38;2.33;;;2.13;;
823;SDS011;373;49.342;8.146;2022-07-29T05:23:06;2.95;;;2.25;;
823;SDS011;373;49.342;8.146;2022-07-29T05:25:34;3.72;;;2.25;;
823;SDS011;373;49.342;8.146;2022-07-29T05:28:01;3.10;;;2.55;;
823;SDS011;373;49.342;8.146;2022-07-29T05:30:28;3.67;;;2.30;;
823;SDS011;373;49.342;8.146;2022-07-29T05:32:55;2.85;;;2.65;;
823;SDS011;373;49.342;8.146;2022-07-29T05:35:22;3.25;;;2.42;;
823;SDS011;373;49.342;8.146;2022-07-29T05:37:49;4.78;;;2.28;;
823;SDS011;373;49.342;8.146;2022-07-29T05:40:18;2.45;;;2.25;;
823;SDS011;373;49.342;8.146;2022-07-29T05:42:45;3.00;;;2.35;;
823;SDS011;373;49.342;8.146;2022-07-29T05:45:12;2.30;;;2.10;;
823;SDS011;373;49.342;8.146;2022-07-29T05:47:40;3.63;;;2.42;;
823;SDS011;373;49.342;8.146;2022-07-29T05:50:08;3.70;;;2.75;;
823;SDS011;373;49.342;8.146;2022-07-29T05:52:35;2.70;;;2.13;;
823;SDS011;373;49.342;8.146;2022-07-29T05:55:03;2.35;;;2.10;;
823;SDS011;373;49.342;8.146;2022-07-29T05:57:32;2.58;;;2.22;;
823;SDS011;373;49.342;8.146;2022-07-29T05:59:59;3.30;;;2.15;;
823;SDS011;373;49.342;8.146;2022-07-29T06:02:26;5.18;;;2.60;;
823;SDS011;373;49.342;8.146;2022-07-29T06:04:53;4.50;;;2.22;;
823;SDS011;373;49.342;8.146;2022-07-29T06:07:20;3.03;;;2.20;;
823;SDS011;373;49.342;8.146;2022-07-29T06:09:47;2.67;;;2.28;;
823;SDS011;373;49.342;8.146;2022-07-29T06:12:14;3.95;;;2.17;;
823;SDS011;373;49.342;8.146;2022-07-29T06:14:43;2.50;;;2.00;;
823;SDS011;373;49.342;8.146;2022-07-29T06:17:10;2.50;;;2.30;;
823;SDS011;373;49.342;8.146;2022-07-29T06:19:37;2.47;;;2.28;;
823;SDS011;373;49.342;8.146;2022-07-29T06:22:04;2.30;;;2.08;;
823;SDS011;373;49.342;8.146;2022-07-29T06:24:31;2.25;;;2.05;;
823;SDS011;373;49.342;8.146;2022-07-29T06:26:59;3.10;;;2.38;;
823;SDS011;373;49.342;8.146;2022-07-29T06:29:26;4.85;;;1.95;;
823;SDS011;373;49.342;8.146;2022-07-29T06:31:54;6.07;;;2.03;;
823;SDS011;373;49.342;8.146;2022-07-29T06:34:21;3.67;;;2.42;;
823;SDS011;373;49.342;8.146;2022-07-29T06:36:48;1.98;;;1.88;;
823;SDS011;373;49.342;8.146;2022-07-29T06:39:17;2.28;;;2.13;;
823;SDS011;373;49.342;8.146;2022-07-29T06:41:46;5.47;;;2.63;;
823;SDS011;373;49.342;8.146;2022-07-29T06:44:13;2.80;;;2.20;;
823;SDS011;373;49.342;8.146;2022-07-29T06:46:40;2.97;;;2.20;;
823;SDS011;373;49.342;8.146;2022-07-29T06:49:09;3.53;;;2.63;;
823;SDS011;373;49.342;8.146;2022-07-29T06:51:37;3.70;;;2.40;;
823;SDS011;373;49.342;8.146;2022-07-29T06:54:04;3.28;;;2.38;;
823;SDS011;373;49.342;8.146;2022-07-29T06:56:32;2.83;;;1.98;;
823;SDS011;373;49.342;8.146;2022-07-29T06:59:02;3.03;;;2.30;;
823;SDS011;373;49.342;8.146;2022-07-29T07:01:29;2.78;;;2.50;;
823;SDS011;373;49.342;8.146;2022-07-29T07:03:56;2.10;;;1.90;;
823;SDS011;373;49.342;8.146;2022-07-29T07:06:25;3.65;;;2.33;;
823;SDS011;373;49.342;8.146;2022-07-29T07:08:52;3.35;;;2.50;;
823;SDS011;373;49.342;8.146;2022-07-29T07:11:20;3.55;;;2.92;;
823;SDS011;373;49.342;8.146;2022-07-29T07:13:47;3.83;;;2.30;;
823;SDS011;373;49.342;8.146;2022-07-29T07:16:14;3.55;;;2.33;;
823;SDS011;373;49.342;8.146;2022-07-29T07:18:42;3.42;;;2.45;;
823;SDS011;373;49.342;8.146;2022-07-29T07:21:10;2.97;;;2.47;;
823;SDS011;373;49.342;8.146;2022-07-29T07:23:39;2.97;;;2.47;;
823;SDS011;373;49.342;8.146;2022-07-29T07:26:06;3.90;;;2.53;;
823;SDS011;373;49.342;8.146;2022-07-29T07:28:33;2.85;;;2.58;;
823;SDS011;373;49.342;8.146;2022-07-29T07:31:00;3.47;;;2.63;;
823;SDS011;373;49.342;8.146;2022-07-29T07:33:27;3.28;;;2.92;;
823;SDS011;373;49.342;8.146;2022-07-29T07:35:55;3.65;;;3.15;;
823;SDS011;373;49.342;8.146;2022-07-29T07:38:22;6.70;;;2.60;;
823;SDS011;373;49.342;8.146;2022-07-29T07:40:50;4.50;;;2.95;;
823;SDS011;373;49.342;8.146;2022-07-29T07:43:17;3.30;;;3.00;;
823;SDS011;373;49.342;8.146;2022-07-29T07:45:44;4.97;;;2.45;;
823;SDS011;373;49.342;8.146;2022-07-29T07:48:11;2.65;;;2.30;;
823;SDS011;373;49.342;8.146;2022-07-29T07:50:39;3.28;;;2.58;;
823;SDS011;373;49.342;8.146;2022-07-29T07:53:06;2.80;;;2.20;;
823;SDS011;373;49.342;8.146;2022-07-29T07:55:33;2.90;;;2.17;;
823;SDS011;373;49.342;8.146;2022-07-29T07:58:01;2.00;;;1.90;;
823;SDS011;373;49.342;8.146;2022-07-29T08:00:28;2.85;;;2.55;;
823;SDS011;373;49.342;8.146;2022-07-29T08:02:55;2.08;;;1.92;;
823;SDS011;373;49.342;8.146;2022-07-29T08:05:22;2.92;;;2.58;;
823;SDS011;373;49.342;8.146;2022-07-29T08:07:50;3.03;;;2.10;;
823;SDS011;373;49.342;8.146;2022-07-29T08:10:17;2.25;;;2.15;;
823;SDS011;373;49.342;8.146;2022-07-29T08:12:59;2.70;;;2.00;;
823;SDS011;373;49.342;8.146;2022-07-29T08:15:30;2.65;;;2.03;;
823;SDS011;373;49.342;8.146;2022-07-29T08:17:57;3.33;;;2.90;;
823;SDS011;373;49.342;8.146;2022-07-29T08:20:24;2.70;;;2.50;;
823;SDS011;373;49.342;8.146;2022-07-29T08:22:52;2.35;;;2.20;;
823;SDS011;373;49.342;8.146;2022-07-29T08:25:19;3.38;;;2.83;;
823;SDS011;373;49.342;8.146;2022-07-29T08:27:46;8.13;;;3.17;;
823;SDS011;373;49.342;8.146;2022-07-29T08:30:15;3.60;;;2.88;;
823;SDS011;373;49.342;8.146;2022-07-29T08:32:42;5.03;;;3.15;;
823;SDS011;373;49.342;8.146;2022-07-29T08:35:09;3.20;;;2.90;;
823;SDS011;373;49.342;8.146;2022-07-29T08:37:36;5.20;;;3.38;;
823;SDS011;373;49.342;8.146;2022-07-29T08:40:04;4.03;;;3.03;;
823;SDS011;373;49.342;8.146;2022-07-29T08:42:32;3.60;;;3.30;;
823;SDS011;373;49.342;8.146;2022-07-29T08:44:59;3.42;;;3.10;;
823;SDS011;373;49.342;8.146;2022-07-29T08:47:28;3.40;;;3.10;;
823;SDS011;373;49.342;8.146;2022-07-29T08:49:55;7.00;;;3.08;;
823;SDS011;373;49.342;8.146;2022-07-29T08:52:23;3.05;;;2.85;;
823;SDS011;373;49.342;8.146;2022-07-29T08:54:52;3.78;;;2.97;;
823;SDS011;373;49.342;8.146;2022-07-29T08:57:19;4.22;;;3.08;;
823;SDS011;373;49.342;8.146;2022-07-29T08:59:48;6.28;;;3.55;;
823;SDS011;373;49.342;8.146;2022-07-29T09:02:19;4.18;;;3.00;;
823;SDS011;373;49.342;8.146;2022-07-29T09:04:48;6.70;;;3.30;;
823;SDS011;373;49.342;8.146;2022-07-29T09:07:17;5.03;;;3.30;;
823;SDS011;373;49.342;8.146;2022-07-29T09:09:45;4.25;;;3.40;;
823;SDS011;373;49.342;8.146;2022-07-29T09:12:12;4.07;;;3.22;;
823;SDS011;373;49.342;8.146;2022-07-29T09:14:40;5.90;;;3.78;;
823;SDS011;373;49.342;8.146;2022-07-29T09:17:08;7.25;;;3.03;;
823;SDS011;373;49.342;8.146;2022-07-29T09:19:36;4.32;;;3.42;;
823;SDS011;373;49.342;8.146;2022-07-29T09:22:05;3.97;;;3.03;;
823;SDS011;373;49.342;8.146;2022-07-29T09:24:38;3.45;;;3.15;;
823;SDS011;373;49.342;8.146;2022-07-29T09:27:11;5.60;;;3.47;;
823;SDS011;373;49.342;8.146;2022-07-29T09:29:46;5.50;;;3.13;;
823;SDS011;373;49.342;8.146;2022-07-29T09:32:13;3.67;;;3.30;;
823;SDS011;373;49.342;8.146;2022-07-29T09:34:40;4.15;;;3.65;;
823;SDS011;373;49.342;8.146;2022-07-29T09:37:09;3.80;;;3.40;;
823;SDS011;373;49.342;8.146;2022-07-29T09:39:37;5.90;;;2.58;;
823;SDS011;373;49.342;8.146;2022-07-29T09:42:11;5.30;;;2.97;;
823;SDS011;373;49.342;8.146;2022-07-29T09:44:43;6.38;;;3.35;;
823;SDS011;373;49.342;8.146;2022-07-29T09:47:11;8.60;;;3.30;;
823;SDS011;373;49.342;8.146;2022-07-29T09:52:25;5.65;;;3.13;;
823;SDS011;373;49.342;8.146;2022-07-29T09:54:53;3.92;;;2.90;;
823;SDS011;373;49.342;8.146;2022-07-29T09:57:30;4.93;;;3.10;;
823;SDS011;373;49.342;8.146;2022-07-29T09:59:58;3.70;;;3.28;;
823;SDS011;373;49.342;8.146;2022-07-29T10:02:38;3.38;;;2.90;;
823;SDS011;373;49.342;8.146;2022-07-29T10:05:06;3.63;;;2.72;;
823;SDS011;373;49.342;8.146;2022-07-29T10:07:45;6.07;;;2.90;;
823;SDS011;373;49.342;8.146;2022-07-29T10:10:18;2.90;;;2.65;;
823;SDS011;373;49.342;8.146;2022-07-29T10:12:51;3.20;;;2.72;;
823;SDS011;373;49.342;8.146;2022-07-29T10:15:21;5.43;;;3.05;;
823;SDS011;373;49.342;8.146;2022-07-29T10:17:49;3.92;;;3.15;;
823;SDS011;373;49.342;8.146;2022-07-29T10:20:17;5.80;;;2.78;;
823;SDS011;373;49.342;8.146;2022-07-29T10:22:46;5.18;;;2.97;;
823;SDS011;373;49.342;8.146;2022-07-29T10:25:14;4.22;;;2.95;;
823;SDS011;373;49.342;8.146;2022-07-29T10:27:42;6.97;;;3.20;;
823;SDS011;373;49.342;8.146;2022-07-29T10:30:10;3.78;;;2.72;;
823;SDS011;373;49.342;8.146;2022-07-29T10:32:49;3.63;;;3.20;;
823;SDS011;373;49.342;8.146;2022-07-29T10:35:33;5.43;;;4.93;;
823;SDS011;373;49.342;8.146;2022-07-29T10:38:25;7.63;;;6.57;;
823;SDS011;373;49.342;8.146;2022-07-29T10:41:01;5.28;;;3.30;;
823;SDS011;373;49.342;8.146;2022-07-29T10:43:56;8.77;;;3.03;;
823;SDS011;373;49.342;8.146;2022-07-29T10:46:25;3.80;;;3.28;;
823;SDS011;373;49.342;8.146;2022-07-29T10:49:07;3.78;;;3.25;;
823;SDS011;373;49.342;8.146;2022-07-29T10:51:57;4.75;;;2.65;;
823;SDS011;373;49.342;8.146;2022-07-29T10:54:40;4.60;;;2.97;;
823;SDS011;373;49.342;8.146;2022-07-29T10:57:11;3.17;;;2.63;;
823;SDS011;373;49.342;8.146;2022-07-29T10:59:39;4.43;;;2.90;;
823;SDS011;373;49.342;8.146;2022-07-29T11:05:09;3.38;;;2.90;;
823;SDS011;373;49.342;8.146;2022-07-29T11:07:39;3.70;;;2.80;;
823;SDS011;373;49.342;8.146;2022-07-29T11:10:28;3.45;;;2.65;;
823;SDS011;373;49.342;8.146;2022-07-29T11:12:55;3.00;;;2.72;;
823;SDS011;373;49.342;8.146;2022-07-29T11:15:23;3.53;;;2.95;;
823;SDS011;373;49.342;8.146;2022-07-29T11:18:02;3.40;;;3.10;;
823;SDS011;373;49.342;8.146;2022-07-29T11:20:31;3.92;;;3.00;;
823;SDS011;373;49.342;8.146;2022-07-29T11:23:16;3.58;;;3.00;;
823;SDS011;373;49.342;8.146;2022-07-29T11:25:46;6.47;;;3.00;;
823;SDS011;373;49.342;8.146;2022-07-29T11:28:43;4.07;;;2.78;;
823;SDS011;373;49.342;8.146;2022-07-29T11:31:31;3.28;;;3.05;;
823;SDS011;373;49.342;8.146;2022-07-29T11:34:16;4.47;;;3.05;;
823;SDS011;373;49.342;8.146;2022-07-29T11:39:41;3.25;;;2.95;;
823;SDS011;373;49.342;8.146;2022-07-29T11:45:09;3.30;;;2.95;;
823;SDS011;373;49.342;8.146;2022-07-29T11:47:39;5.85;;;2.92;;
823;SDS011;373;49.342;8.146;2022-07-29T11:50:08;3.67;;;2.80;;
823;SDS011;373;49.342;8.146;2022-07-29T11:52:37;3.50;;;3.20;;
823;SDS011;373;49.342;8.146;2022-07-29T11:55:08;5.72;;;2.97;;
823;SDS011;373;49.342;8.146;2022-07-29T11:57:37;3.85;;;2.83;;
823;SDS011;373;49.342;8.146;2022-07-29T12:00:20;3.33;;;3.03;;
823;SDS011;373;49.342;8.146;2022-07-29T12:02:49;4.00;;;2.70;;
823;SDS011;373;49.342;8.146;2022-07-29T12:05:16;3.13;;;2.85;;
823;SDS011;373;49.342;8.146;2022-07-29T12:07:44;2.65;;;2.40;;
823;SDS011;373;49.342;8.146;2022-07-29T12:10:12;3.75;;;2.92;;
823;SDS011;373;49.342;8.146;2022-07-29T12:12:40;3.90;;;2.72;;
823;SDS011;373;49.342;8.146;2022-07-29T12:15:12;2.78;;;2.58;;
823;SDS011;373;49.342;8.146;2022-07-29T12:17:42;2.80;;;2.60;;
823;SDS011;373;49.342;8.146;2022-07-29T12:20:09;3.80;;;3.22;;
823;SDS011;373;49.342;8.146;2022-07-29T12:22:39;2.97;;;2.67;;
823;SDS011;373;49.342;8.146;2022-07-29T12:25:10;2.72;;;2.47;;
823;SDS011;373;49.342;8.146;2022-07-29T12:27:40;3.05;;;2.85;;
823;SDS011;373;49.342;8.146;2022-07-29T12:30:09;3.25;;;2.55;;
823;SDS011;373;49.342;8.146;2022-07-29T12:32:40;3.47;;;2.63;;
823;SDS011;373;49.342;8.146;2022-07-29T12:35:09;3.30;;;2.50;;
823;SDS011;373;49.342;8.146;2022-07-29T12:37:39;2.72;;;2.47;;
823;SDS011;373;49.342;8.146;2022-07-29T12:40:08;5.63;;;2.45;;
823;SDS011;373;49.342;8.146;2022-07-29T12:42:37;3.40;;;2.45;;
823;SDS011;373;49.342;8.146;2022-07-29T12:45:06;3.30;;;2.55;;
823;SDS011;373;49.342;8.146;2022-07-29T12:50:20;3.92;;;2.92;;
823;SDS011;373;49.342;8.146;2022-07-29T12:52:47;2.60;;;2.40;;
823;SDS011;373;49.342;8.146;2022-07-29T12:55:14;2.25;;;2.15;;
823;SDS011;373;49.342;8.146;2022-07-29T12:57:45;2.67;;;2.30;;
823;SDS011;373;49.342;8.146;2022-07-29T13:00:14;4.38;;;2.80;;
823;SDS011;373;49.342;8.146;2022-07-29T13:02:42;4.57;;;2.33;;
823;SDS011;373;49.342;8.146;2022-07-29T13:05:11;2.53;;;2.33;;
823;SDS011;373;49.342;8.146;2022-07-29T13:07:39;3.42;;;1.85;;
823;SDS011;373;49.342;8.146;2022-07-29T13:10:10;2.83;;;1.92;;
823;SDS011;373;49.342;8.146;2022-07-29T13:15:29;3.65;;;2.08;;
823;SDS011;373;49.342;8.146;2022-07-29T13:17:56;3.33;;;2.28;;
823;SDS011;373;49.342;8.146;2022-07-29T13:20:25;4.82;;;2.15;;
823;SDS011;373;49.342;8.146;2022-07-29T13:22:54;1.80;;;1.70;;
823;SDS011;373;49.342;8.146;2022-07-29T13:25:25;2.20;;;2.00;;
823;SDS011;373;49.342;8.146;2022-07-29T13:27:54;3.50;;;2.33;;
823;SDS011;373;49.342;8.146;2022-07-29T13:30:22;2.13;;;1.92;;
823;SDS011;373;49.342;8.146;2022-07-29T13:32:50;2.42;;;2.20;;
823;SDS011;373;49.342;8.146;2022-07-29T13:35:18;2.90;;;2.05;;
823;SDS011;373;49.342;8.146;2022-07-29T13:37:47;1.60;;;1.40;;
823;SDS011;373;49.342;8.146;2022-07-29T13:40:14;4.53;;;2.10;;
823;SDS011;373;49.342;8.146;2022-07-29T13:42:41;1.98;;;1.50;;
823;SDS011;373;49.342;8.146;2022-07-29T13:45:09;1.90;;;1.80;;
823;SDS011;373;49.342;8.146;2022-07-29T13:47:37;4.10;;;2.20;;
823;SDS011;373;49.342;8.146;2022-07-29T13:50:05;2.17;;;1.73;;
823;SDS011;373;49.342;8.146;2022-07-29T13:52:35;4.25;;;2.10;;
823;SDS011;373;49.342;8.146;2022-07-29T13:55:04;2.55;;;1.52;;
823;SDS011;373;49.342;8.146;2022-07-29T13:57:33;1.80;;;1.70;;
823;SDS011;373;49.342;8.146;2022-07-29T14:00:00;2.30;;;1.60;;
823;SDS011;373;49.342;8.146;2022-07-29T14:02:33;2.00;;;1.90;;
823;SDS011;373;49.342;8.146;2022-07-29T14:05:01;1.85;;;1.73;;
823;SDS011;373;49.342;8.146;2022-07-29T14:07:28;4.13;;;2.20;;
823;SDS011;373;49.342;8.146;2022-07-29T14:09:55;1.92;;;1.70;;
823;SDS011;373;49.342;8.146;2022-07-29T14:12:23;1.95;;;1.40;;
823;SDS011;373;49.342;8.146;2022-07-29T14:14:51;2.45;;;1.60;;
823;SDS011;373;49.342;8.146;2022-07-29T14:17:18;2.25;;;1.60;;
823;SDS011;373;49.342;8.146;2022-07-29T14:19:45;2.30;;;1.75;;
823;SDS011;373;49.342;8.146;2022-07-29T14:22:12;2.65;;;1.52;;
823;SDS011;373;49.342;8.146;2022-07-29T14:24:39;2.28;;;1.75;;
823;SDS011;373;49.342;8.146;2022-07-29T14:27:06;1.80;;;1.50;;
823;SDS011;373;49.342;8.146;2022-07-29T14:29:35;1.80;;;1.20;;
823;SDS011;373;49.342;8.146;2022-07-29T14:32:02;4.57;;;2.00;;
823;SDS011;373;49.342;8.146;2022-07-29T14:34:30;1.80;;;1.30;;
823;SDS011;373;49.342;8.146;2022-07-29T14:36:57;2.72;;;1.50;;
823;SDS011;373;49.342;8.146;2022-07-29T14:39:24;1.80;;;1.70;;
823;SDS011;373;49.342;8.146;2022-07-29T14:41:51;4.15;;;1.70;;
823;SDS011;373;49.342;8.146;2022-07-29T14:44:19;2.25;;;1.40;;
823;SDS011;373;49.342;8.146;2022-07-29T14:46:47;1.30;;;1.30;;
823;SDS011;373;49.342;8.146;2022-07-29T14:49:15;1.63;;;1.48;;
823;SDS011;373;49.342;8.146;2022-07-29T14:51:44;2.10;;;1.40;;
823;SDS011;373;49.342;8.146;2022-07-29T14:54:11;2.08;;;1.73;;
823;SDS011;373;49.342;8.146;2022-07-29T14:56:39;1.75;;;1.38;;
823;SDS011;373;49.342;8.146;2022-07-29T14:59:06;1.85;;;1.35;;
823;SDS011;373;49.342;8.146;2022-07-29T15:01:34;2.17;;;1.17;;
823;SDS011;373;49.342;8.146;2022-07-29T15:04:02;2.22;;;1.40;;
823;SDS011;373;49.342;8.146;2022-07-29T15:06:30;2.60;;;1.48;;
823;SDS011;373;49.342;8.146;2022-07-29T15:08:57;5.97;;;1.45;;
823;SDS011;373;49.342;8.146;2022-07-29T15:11:24;2.05;;;1.20;;
823;SDS011;373;49.342;8.146;2022-07-29T15:13:51;1.15;;;1.05;;
823;SDS011;373;49.342;8.146;2022-07-29T15:16:18;1.77;;;1.20;;
823;SDS011;373;49.342;8.146;2022-07-29T15:18:45;1.42;;;1.33;;
823;SDS011;373;49.342;8.146;2022-07-29T15:21:14;2.50;;;1.40;;
823;SDS011;373;49.342;8.146;2022-07-29T15:23:41;1.83;;;1.27;;
823;SDS011;373;49.342;8.146;2022-07-29T15:26:08;2.75;;;1.67;;
823;SDS011;373;49.342;8.146;2022-07-29T15:28:35;1.73;;;1.45;;
823;SDS011;373;49.342;8.146;2022-07-29T15:31:02;1.83;;;1.73;;
823;SDS011;373;49.342;8.146;2022-07-29T15:33:30;1.25;;;1.17;;
823;SDS011;373;49.342;8.146;2022-07-29T15:35:57;2.78;;;1.10;;
823;SDS011;373;49.342;8.146;2022-07-29T15:38:25;2.35;;;1.30;;
823;SDS011;373;49.342;8.146;2022-07-29T15:40:52;2.67;;;1.23;;
823;SDS011;373;49.342;8.146;2022-07-29T15:43:19;2.00;;;1.02;;
823;SDS011;373;49.342;8.146;2022-07-29T15:45:46;2.67;;;1.35;;
823;SDS011;373;49.342;8.146;2022-07-29T15:48:28;2.53;;;1.25;;
823;SDS011;373;49.342;8.146;2022-07-29T15:50:55;2.15;;;1.23;;
823;SDS011;373;49.342;8.146;2022-07-29T15:53:22;3.47;;;1.33;;
823;SDS011;373;49.342;8.146;2022-07-29T15:55:51;3.13;;;1.38;;
823;SDS011;373;49.342;8.146;2022-07-29T15:58:18;1.45;;;1.17;;
823;SDS011;373;49.342;8.146;2022-07-29T16:00:45;1.67;;;1.52;;
823;SDS011;373;49.342;8.146;2022-07-29T16:03:12;2.47;;;1.13;;
823;SDS011;373;49.342;8.146;2022-07-29T16:05:40;3.22;;;1.05;;
823;SDS011;373;49.342;8.146;2022-07-29T16:08:08;1.88;;;1.33;;
823;SDS011;373;49.342;8.146;2022-07-29T16:10:35;2.45;;;1.10;;
823;SDS011;373;49.342;8.146;2022-07-29T16:13:03;1.40;;;1.10;;
823;SDS011;373;49.342;8.146;2022-07-29T16:15:30;2.03;;;1.17;;